• Join FlightAware (Why Join?)
  • Login
  • US Flag 
05:23AM EDT


 

Airport Tracker/Info


-or-


 

Live Flight TrackerFlight Track Log ✈ WJA1229 ✈ 19-Aug-2013 ✈ KMCO - CYYZ

Flight Track Log - Related Links

Times and Time Zones

All times are in EDT time to prevent confusion due to time zone crossing. See the WJA1229 flight status page for this flight to view local times or setup timezone preferences in your user account.

Time Position Orientation Groundspeed Altitude Reporting Facility
EDT Latitude Longitude Course Direction KTS MPH feet Rate Location/Type
02:28PM 28.5670 -81.2760 349° North 325 374 10,800  Level FlightAware
02:29PM 28.6240 -81.2880 350° North 358 412 12,400 2,640 Climbing FlightAware
02:29PM 28.6870 -81.2910 358° North 370 426 13,900 2,640 Climbing FlightAware
02:30PM 28.7410 -81.2940 357° North 375 432 15,500 2,760 Climbing FlightAware
02:31PM 28.8250 -81.2900 North 376 433 17,600 2,460 Climbing FlightAware
02:31PM 28.8640 -81.2830 North 379 436 18,500 -2,580 Climbing FlightAware
02:32PM 28.7160 -81.2930 183° South 372 428 14,700 -2,640 Descending FlightAware
02:33PM 28.7340 -81.2940 357° North 375 432 15,100 780 Climbing FlightAware
02:33PM 28.7500 -81.2950 357° North 375 432 15,600 1,020 Climbing FlightAware
02:34PM 28.7750 -81.2960 358° North 376 433 16,300 1,800 Climbing FlightAware
02:34PM 28.8190 -81.2910 North 376 433 17,500 2,280 Climbing FlightAware
02:35PM 28.8500 -81.2850 10° North 378 435 18,200 900 Climbing FlightAware
02:35PM 28.9020 -81.2760 North 380 437 18,500 180 Climbing FlightAware
02:36PM 28.9560 -81.2660 North 380 437 18,500  Level FlightAware
02:36PM 29.0090 -81.2570 North 380 437 18,500  Level FlightAware
02:37PM 29.0620 -81.2470 North 380 437 18,500  Level FlightAware
02:38PM 29.1160 -81.2370 North 380 437 18,500 6,240 Level FlightAware
02:38PM 29.7110 -81.2730 357° North 29,600 9,120 Climbing FlightAware
02:39PM 29.8040 -81.2830 355° North 487 560 30,400 1,320 Climbing FlightAware
02:40PM 29.9040 -81.2930 355° North 486 559 31,500 1,500 Climbing FlightAware
02:40PM 29.9830 -81.3010 355° North 484 557 32,400 1,320 Climbing FlightAware
02:41PM 30.0640 -81.3100 355° North 485 558 33,100 660 Climbing FlightAware
02:41PM 30.1180 -81.3150 355° North 485 558 33,200 1,080 Climbing FlightAware
02:42PM 30.2220 -81.3260 355° North 491 565 34,400 1,680 Climbing FlightAware
02:43PM 30.3110 -81.3360 354° North 486 559 35,300 1,440 Climbing FlightAware
02:43PM 30.3740 -81.3420 355° North 481 554 36,000 1,260 Climbing FlightAware
02:44PM 30.4520 -81.3510 354° North 478 550 36,700 780 Climbing FlightAware
02:44PM 30.5290 -81.3590 355° North 477 549 37,000 180 Climbing FlightAware
02:45PM 30.6240 -81.3550 North 471 542 37,000  Level FlightAware
02:46PM 30.6840 -81.3460 North 471 542 37,000  Level FlightAware
02:46PM 30.7500 -81.3370 North 471 542 37,000  Level FlightAware
02:47PM 30.6920 -81.3450 187° South 469 540 37,000  Level FlightAware
02:47PM 30.9140 -81.3110 North 470 541 37,000  Level FlightAware
02:48PM 30.9920 -81.2990 North 470 541 37,000  Level FlightAware
02:48PM 31.0650 -81.2870 North 472 543 37,000  Level FlightAware
02:49PM 31.1620 -81.2730 North 474 545 37,000  Level FlightAware
02:50PM 31.2490 -81.2600 North 475 547 37,000  Level FlightAware
02:50PM 31.3180 -81.2490 North 476 548 37,000  Level FlightAware
02:51PM 31.4010 -81.2350 North 477 549 37,000  Level FlightAware
02:51PM 31.4360 -81.2220 18° North 476 548 37,000  Level FlightAware
02:52PM 31.5050 -81.1900 22° Northeast 476 548 37,000  Level FlightAware
02:53PM 31.6030 -81.1390 24° Northeast 477 549 37,000  Level FlightAware
02:53PM 31.6690 -81.1040 24° Northeast 477 549 37,000  Level FlightAware
02:54PM 31.7340 -81.0680 25° Northeast 477 549 37,000  Level FlightAware
02:54PM 31.8070 -81.0290 24° Northeast 477 549 37,000  Level FlightAware
02:55PM 31.8720 -80.9950 24° Northeast 477 549 37,000  Level FlightAware
02:55PM 31.9480 -80.9560 24° Northeast 475 547 37,000  Level FlightAware
02:56PM 32.0190 -80.9180 24° Northeast 477 549 37,000  Level FlightAware
02:57PM 32.0920 -80.8780 25° Northeast 477 549 37,000  Level FlightAware
02:57PM 32.1510 -80.8460 25° Northeast 479 551 37,000  Level FlightAware
02:58PM 32.2350 -80.8010 24° Northeast 479 551 37,000  Level FlightAware
02:58PM 32.3030 -80.7650 24° Northeast 479 551 37,000  Level FlightAware
02:59PM 32.3770 -80.7280 23° Northeast 479 551 37,000  Level FlightAware
03:00PM 32.4490 -80.6920 23° Northeast 481 554 37,000  Level FlightAware
03:00PM 32.5240 -80.6590 20° North 483 556 37,000  Level FlightAware
03:01PM 32.5960 -80.6310 18° North 483 556 37,000  Level FlightAware
03:01PM 32.6950 -80.5920 18° North 484 557 37,000  Level FlightAware
03:02PM 32.7790 -80.5580 19° North 485 558 37,000  Level FlightAware
03:03PM 32.8370 -80.5330 20° North 484 557 37,000  Level FlightAware
03:03PM 32.9270 -80.4940 20° North 482 555 37,000  Level FlightAware
03:04PM 32.9980 -80.4600 22° Northeast 482 555 37,000  Level FlightAware
03:04PM 33.0700 -80.4230 23° Northeast 482 555 37,000  Level FlightAware
03:05PM 33.1300 -80.3920 23° Northeast 481 554 37,000  Level FlightAware
03:06PM 33.2070 -80.3510 24° Northeast 481 554 37,000  Level FlightAware
03:06PM 33.2730 -80.3090 28° Northeast 479 551 37,000  Level FlightAware
03:07PM 33.3330 -80.2580 35° Northeast 478 550 37,000  Level FlightAware
03:07PM 33.4030 -80.1880 40° Northeast 482 555 37,000  Level FlightAware
03:08PM 33.4570 -80.1300 42° Northeast 484 557 37,000  Level FlightAware
03:09PM 33.5210 -80.0620 42° Northeast 485 558 37,000  Level FlightAware
03:09PM 33.5720 -80.0080 41° Northeast 486 559 37,000  Level FlightAware
03:10PM 33.6380 -79.9480 37° Northeast 486 559 37,000  Level FlightAware
03:10PM 33.7190 -79.9260 13° North 481 554 37,000  Level FlightAware
03:11PM 33.8380 -79.9200 North 481 554 37,000  Level FlightAware
03:12PM 33.9200 -79.9140 North 480 552 37,000  Level FlightAware
03:12PM 33.9960 -79.9090 North 481 554 37,000  Level FlightAware
03:13PM 34.0730 -79.9040 North 482 555 37,000  Level FlightAware
03:14PM 34.1980 -79.8950 North 481 554 37,000  Level FlightAware
03:15PM 34.2800 -79.8900 North 482 555 37,000  Level FlightAware
03:15PM 34.3720 -79.8840 North 484 557 37,000  Level FlightAware
03:16PM 34.4540 -79.8780 North 484 557 37,000  Level FlightAware
03:16PM 34.5390 -79.8720 North 486 559 37,000  Level FlightAware
03:17PM 34.6250 -79.8670 North 486 559 37,000  Level FlightAware
03:18PM 34.5510 -79.8720 183° South 489 563 37,000  Level FlightAware
03:18PM 34.7880 -79.8560 North 490 564 37,000  Level FlightAware
03:19PM 34.8650 -79.8510 North 490 564 37,000  Level FlightAware
03:20PM 34.9340 -79.8460 North 490 564 37,000  Level FlightAware
03:20PM 35.0030 -79.8420 North 490 564 37,000  Level FlightAware
03:21PM 35.0690 -79.8380 North 490 564 37,000  Level FlightAware
03:21PM 35.1340 -79.8330 North 490 564 37,000  Level FlightAware
03:22PM 35.2470 -79.9930 311° West 37,000  Level FlightAware
03:22PM 35.2560 -79.9970 340° North 465 535 37,000  Level FlightAware
03:23PM 35.3300 -80.0250 343° North 471 542 37,000  Level FlightAware
03:23PM 35.4010 -80.0500 344° North 465 535 37,000  Level FlightAware
03:24PM 35.4730 -80.0680 348° North 476 548 37,000  Level FlightAware
03:24PM 35.5210 -80.0700 358° North 485 558 37,000  Level FlightAware
03:25PM 35.6090 -80.0600 North 486 559 37,000  Level FlightAware
03:25PM 35.7010 -80.0510 North 486 559 37,000  Level FlightAware
03:26PM 35.7900 -80.0420 North 484 557 37,000  Level FlightAware
03:27PM 35.8630 -80.0340 North 483 556 37,000  Level FlightAware
03:27PM 35.9450 -80.0250 North 483 556 37,000  Level FlightAware
03:28PM 36.0430 -80.0160 North 484 557 37,000  Level FlightAware
03:29PM 36.1330 -80.0050 North 487 560 37,000  Level FlightAware
03:29PM 36.2300 -79.9950 North 487 560 37,000  Level FlightAware
03:30PM 36.3090 -79.9880 North 487 560 37,000  Level FlightAware
03:31PM 36.3910 -79.9780 North 487 560 37,000  Level FlightAware
03:31PM 36.4640 -79.9720 North 487 560 37,000  Level FlightAware
03:32PM 36.5330 -79.9660 North 487 560 37,000  Level FlightAware
03:33PM 36.6960 -79.9470 North 486 559 37,000  Level FlightAware
03:33PM 36.7480 -79.9400 North 317 365 37,000  Level FlightAware
03:34PM 36.8770 -79.9270 North 492 566 37,000  Level FlightAware
03:35PM 36.9530 -79.9180 North 480 552 37,000  Level FlightAware
03:35PM 37.0200 -79.9110 North 480 552 37,000  Level FlightAware
03:36PM 37.0880 -79.9040 North 480 552 37,000  Level FlightAware
03:37PM 37.2370 -79.8890 North 490 564 37,000  Level FlightAware
03:37PM 37.3060 -79.8830 North 490 564 37,000  Level FlightAware
03:38PM 37.3750 -79.8770 North 490 564 37,000  Level FlightAware
03:39PM 37.4450 -79.8710 North 490 564 37,000  Level FlightAware
03:39PM 37.5140 -79.8650 North 490 564 37,000  Level FlightAware
03:40PM 37.5830 -79.8590 North 490 564 37,000  Level FlightAware
03:40PM 37.6890 -79.8530 North 482 555 37,000  Level FlightAware
03:41PM 37.7810 -79.8580 358° North 486 559 37,000  Level FlightAware
03:41PM 37.8590 -79.8610 358° North 489 563 37,000  Level FlightAware
03:42PM 37.9320 -79.8650 358° North 492 566 37,000  Level FlightAware
03:42PM 38.0110 -79.8590 North 504 580 37,000  Level FlightAware
03:43PM 38.1050 -79.8480 North 504 580 37,000  Level FlightAware
03:44PM 38.1760 -79.8390 North 502 578 37,000  Level FlightAware
03:44PM 38.2590 -79.8290 North 503 579 37,000  Level FlightAware
03:45PM 38.3260 -79.8220 North 503 579 37,000  Level FlightAware
03:45PM 38.3970 -79.8140 North 503 579 37,000  Level FlightAware
03:46PM 38.5240 -79.7950 North 506 582 37,000  Level FlightAware
03:47PM 38.5950 -79.7870 North 506 582 37,000  Level FlightAware
03:47PM 38.6840 -79.7760 North 502 578 37,000  Level FlightAware
03:48PM 38.7590 -79.7660 North 500 575 37,000  Level FlightAware
03:48PM 38.8400 -79.7560 North 500 575 37,000  Level FlightAware
03:49PM 38.9290 -79.7450 North 501 577 37,000  Level FlightAware
03:50PM 39.0130 -79.7340 North 501 577 37,000  Level FlightAware
03:50PM 39.0970 -79.7240 North 501 577 37,000  Level FlightAware
03:51PM 39.1700 -79.7150 North 501 577 37,000  Level FlightAware
03:51PM 39.2530 -79.7040 North 501 577 37,000  Level FlightAware
03:52PM 39.3310 -79.6940 North 499 574 37,000  Level FlightAware
03:53PM 39.4200 -79.6830 North 498 573 37,000  Level FlightAware
03:53PM 39.4980 -79.6730 North 497 572 37,000  Level FlightAware
03:54PM 39.5720 -79.6640 North 495 570 37,000  Level FlightAware
03:54PM 39.6590 -79.6530 North 493 567 37,000  Level FlightAware
03:55PM 39.7320 -79.6430 North 492 566 37,000  Level FlightAware
03:55PM 39.8120 -79.6330 North 490 564 37,000  Level FlightAware
03:56PM 39.8940 -79.6220 North 489 563 37,000  Level FlightAware
03:57PM 39.9700 -79.6120 North 489 563 37,000  Level FlightAware
03:57PM 40.0510 -79.6020 North 488 562 37,000  Level FlightAware
03:58PM 40.1280 -79.5920 North 487 560 37,000  Level FlightAware
03:58PM 40.2130 -79.5810 North 486 559 37,000  Level FlightAware
03:59PM 40.2850 -79.5710 North 486 559 37,000  Level FlightAware
04:00PM 40.3590 -79.5620 North 484 557 37,000  Level FlightAware
04:00PM 40.4360 -79.5520 North 483 556 37,000  Level FlightAware
04:01PM 40.5110 -79.5420 North 472 543 37,000  Level FlightAware
04:01PM 40.5970 -79.5310 North 468 539 37,000  Level FlightAware
04:02PM 40.6710 -79.5210 North 466 536 37,000 -480 Level FlightAware
04:02PM 40.7470 -79.5110 North 461 531 36,500 -900 Descending FlightAware
04:03PM 40.8140 -79.5020 North 460 529 36,000 -960 Descending FlightAware
04:04PM 40.8910 -79.4920 North 444 511 35,400 -960 Descending FlightAware
04:04PM 40.9500 -79.4840 North 443 510 34,900 -900 Descending FlightAware
04:05PM 41.0210 -79.4750 North 442 509 34,400 -720 Descending FlightAware
04:05PM 41.1090 -79.4630 North 445 512 34,000 -360 Descending FlightAware
04:06PM 41.1780 -79.4540 North 444 511 34,000  Level FlightAware
04:07PM 41.2370 -79.4460 North 442 509 34,000  Level FlightAware
04:07PM 41.3210 -79.4340 North 441 507 34,000  Level FlightAware
04:08PM 41.3890 -79.4250 North 440 506 34,000  Level FlightAware
04:08PM 41.4630 -79.4150 North 439 505 34,000  Level FlightAware
04:09PM 41.5500 -79.4030 North 437 503 34,000  Level FlightAware
04:10PM 41.6190 -79.3940 North 435 501 34,000 -420 Level FlightAware
04:10PM 41.6800 -79.3860 North 429 494 33,600 -960 Descending FlightAware
04:11PM 41.7430 -79.3770 North 422 486 33,000 -1,140 Descending FlightAware
04:11PM 41.8220 -79.3670 North 414 476 32,300 -1,080 Descending FlightAware
04:12PM 41.8890 -79.3570 North 410 472 31,700 -1,080 Descending FlightAware
04:12PM 41.9480 -79.3490 North 406 467 31,100 -1,140 Descending FlightAware
04:13PM 42.0210 -79.3390 North 401 461 30,400 -1,020 Descending FlightAware
04:14PM 42.0940 -79.3290 North 395 455 29,800 -1,020 Descending FlightAware
04:14PM 42.1630 -79.3200 North 389 448 29,100 -1,080 Descending FlightAware
04:15PM 42.2270 -79.3110 North 384 442 28,500 -1,020 Descending FlightAware
04:16PM 42.2820 -79.3030 North 381 438 28,000 -1,020 Descending FlightAware
04:16PM 42.3470 -79.2940 North 381 438 27,400 -1,020 Descending FlightAware
04:17PM 42.4100 -79.2860 North 377 434 26,800 -1,140 Descending FlightAware
04:17PM 42.4660 -79.2780 North 368 423 26,100 -1,740 Descending FlightAware
04:18PM 42.5010 -79.2760 North 369 425 25,300 -2,220 Descending FlightAware
04:18PM 42.5450 -79.2790 357° North 368 423 24,400 -2,220 Descending FlightAware
04:19PM 42.6130 -79.2860 356° North 368 423 22,900 -1,680 Descending FlightAware
04:19PM 42.6660 -79.2910 356° North 355 409 22,400 -1,020 Descending FlightAware
04:20PM 42.7250 -79.2970 356° North 346 398 21,800 -1,020 Descending FlightAware
04:20PM 42.7820 -79.3030 356° North 345 397 21,200 -1,200 Descending FlightAware
04:21PM 42.8330 -79.3080 356° North 341 392 20,500 -1,500 Descending FlightAware
04:22PM 42.8880 -79.3130 356° North 335 386 19,500 -1,740 Descending FlightAware
04:22PM 42.9420 -79.3190 355° North 330 380 18,500 -1,680 Descending FlightAware
04:23PM 42.9930 -79.3240 356° North 326 375 17,600 -1,620 Descending FlightAware
04:23PM 43.0480 -79.3290 356° North 323 372 16,600 -1,620 Descending FlightAware
04:24PM 43.1020 -79.3350 355° North 320 368 15,600 -1,680 Descending FlightAware
04:24PM 43.1490 -79.3390 356° North 317 365 14,700 -1,620 Descending FlightAware
04:25PM 43.2010 -79.3450 355° North 313 360 13,800 -1,620 Descending FlightAware
04:26PM 43.2550 -79.3500 356° North 309 356 12,800 -1,320 Descending FlightAware
04:26PM 43.3030 -79.3580 353° North 294 338 12,200 -1,260 Descending FlightAware
04:26PM 43.3200 -79.3660 341° North 293 337 11,800 -1,860 Descending FlightAware
04:27PM 43.3670 -79.3960 335° Northwest 295 339 10,700 -1,500 Descending FlightAware
04:28PM 43.4140 -79.4260 335° Northwest 287 330 9,900 -1,260 Descending FlightAware
04:28PM 43.4380 -79.4420 334° Northwest 283 326 9,500 -1,200 Descending FlightAware
04:29PM 43.4670 -79.4600 336° Northwest 276 318 9,000 -1,200 Descending FlightAware
04:29PM 43.4900 -79.4750 335° Northwest 274 315 8,600 -1,200 Descending FlightAware
04:29PM 43.5070 -79.4860 335° Northwest 272 313 8,300 -1,080 Descending FlightAware
04:30PM 43.5340 -79.5030 335° Northwest 266 306 7,900 -540 Descending FlightAware
04:30PM 43.5570 -79.5180 335° Northwest 250 288 7,900 -900 Level FlightAware
04:30PM 43.5780 -79.5320 334° Northwest 257 296 7,300 -2,040 Descending FlightAware
04:30PM 43.5900 -79.5340 353° North 267 307 6,900 -1,740 Descending FlightAware
04:31PM 43.6180 -79.5150 26° Northeast 272 313 6,300 -1,620 Descending FlightAware
04:31PM 43.6350 -79.4890 48° Northeast 274 315 5,700 -1,740 Descending FlightAware
04:32PM 43.6570 -79.4570 46° Northeast 274 315 5,000 -1,740 Descending FlightAware
04:32PM 43.6740 -79.4320 47° Northeast 273 314 4,400 -1,380 Descending FlightAware
04:32PM 43.6910 -79.4060 48° Northeast 266 306 4,100 -1,200 Descending FlightAware
04:33PM 43.7110 -79.3790 44° Northeast 255 293 3,500 -1,440 Descending FlightAware
04:33PM 43.7180 -79.3750 22° Northeast 246 283 3,400 -1,500 Descending FlightAware
04:33PM 43.7270 -79.3710 18° North 241 277 3,100 -840 Descending FlightAware
04:33PM 43.7500 -79.3810 343° North 214 246 2,900 -300 Descending FlightAware
04:34PM 43.7630 -79.4010 312° West 197 227 2,900  Level FlightAware
04:34PM 43.7650 -79.4070 295° West 195 224 2,900  Level FlightAware
04:34PM 43.7650 -79.4130 270° West 193 222 2,900  Level FlightAware
04:34PM 43.7620 -79.4380 261° West 194 223 2,900  Level FlightAware
04:34PM 43.7580 -79.4610 256° West 196 226 2,900 -480 Level FlightAware
04:35PM 43.7520 -79.4840 250° West 196 226 2,600 -1,080 Descending FlightAware
04:35PM 43.7440 -79.4970 230° Southwest 190 219 2,300 -1,020 Descending FlightAware
04:35PM 43.7340 -79.5110 225° Southwest 181 208 2,100 -900 Descending FlightAware
04:36PM 43.7200 -79.5320 227° Southwest 174 200 1,700 -960 Descending FlightAware
04:36PM 43.7100 -79.5470 227° Southwest 163 188 1,400 -840 Descending FlightAware
04:36PM 43.6980 -79.5650 227° Southwest 146 168 1,100 -720 Descending FlightAware
04:37PM 43.6890 -79.5780 226° Southwest 147 169 900 -780 Descending FlightAware
04:37PM 43.6790 -79.5910 223° Southwest 146 168 600 -480 Descending FlightAware
04:38PM 43.6640 -79.6140 228° Southwest 148 170 500 -180 Descending FlightAware